Weather at Tekovský Hrádok

Public forecast

Using degrees Celsius for public forecast. Weather courtesy of forecast.io.

Closest aviation weather report (METAR) to Tekovský Hrádok

Report is more than 6 hours old.

Closest report is Nitra Airfield, 17.6 nm (32.6 km) WNW. Retrieved 2012/12/31 20:00 UTC (9 years ago):

LZNI 312000Z /////KT CAVOK 01/M02 Q1022

Closest aviation forecast (TAF) to Tekovský Hrádok

Closest forecast is Sliač Airport, 36.6 nm (67.8 km) NE. Retrieved 2022/01/29 06:45 UTC (2 hours ago):

TAF TAF LZSL 290430Z 2906/2918 VRB03KT 9999 OVC035 BECMG 2913/2915 24006KT 6000 -SN SNRA BKN015 OVC025